sensor_id;sensor_type;location;lat;lon;timestamp;temperature;humidity
3055;DHT22;1537;52.018;8.542;2022-11-15T00:00:31;10.00;66.70
3055;DHT22;1537;52.018;8.542;2022-11-15T00:04:14;10.10;66.90
3055;DHT22;1537;52.018;8.542;2022-11-15T00:07:58;10.10;66.80
3055;DHT22;1537;52.018;8.542;2022-11-15T00:11:40;10.20;66.30
3055;DHT22;1537;52.018;8.542;2022-11-15T00:15:22;10.20;66.30
3055;DHT22;1537;52.018;8.542;2022-11-15T00:19:05;10.30;66.10
3055;DHT22;1537;52.018;8.542;2022-11-15T00:22:47;10.30;65.50
3055;DHT22;1537;52.018;8.542;2022-11-15T00:26:31;10.30;65.40
3055;DHT22;1537;52.018;8.542;2022-11-15T00:30:13;10.40;65.90
3055;DHT22;1537;52.018;8.542;2022-11-15T00:33:55;10.40;66.10
3055;DHT22;1537;52.018;8.542;2022-11-15T00:37:37;10.50;67.10
3055;DHT22;1537;52.018;8.542;2022-11-15T00:41:20;10.60;67.80
3055;DHT22;1537;52.018;8.542;2022-11-15T00:45:04;10.70;67.90
3055;DHT22;1537;52.018;8.542;2022-11-15T00:48:46;10.70;67.50
3055;DHT22;1537;52.018;8.542;2022-11-15T00:52:28;10.80;67.80
3055;DHT22;1537;52.018;8.542;2022-11-15T00:56:11;10.80;68.00
3055;DHT22;1537;52.018;8.542;2022-11-15T00:59:53;10.90;68.30
3055;DHT22;1537;52.018;8.542;2022-11-15T01:03:38;10.90;68.20
3055;DHT22;1537;52.018;8.542;2022-11-15T01:07:21;11.00;68.60
3055;DHT22;1537;52.018;8.542;2022-11-15T01:11:04;10.90;68.10
3055;DHT22;1537;52.018;8.542;2022-11-15T01:14:46;11.00;68.70
3055;DHT22;1537;52.018;8.542;2022-11-15T01:18:28;11.00;68.90
3055;DHT22;1537;52.018;8.542;2022-11-15T01:22:12;11.10;69.00
3055;DHT22;1537;52.018;8.542;2022-11-15T01:25:59;11.10;69.20
3055;DHT22;1537;52.018;8.542;2022-11-15T01:29:41;11.20;69.20
3055;DHT22;1537;52.018;8.542;2022-11-15T01:33:23;11.20;69.40
3055;DHT22;1537;52.018;8.542;2022-11-15T01:37:05;11.20;69.40
3055;DHT22;1537;52.018;8.542;2022-11-15T01:40:49;11.30;69.70
3055;DHT22;1537;52.018;8.542;2022-11-15T01:44:39;11.30;69.90
3055;DHT22;1537;52.018;8.542;2022-11-15T01:48:22;11.40;70.20
3055;DHT22;1537;52.018;8.542;2022-11-15T01:52:09;11.40;70.10
3055;DHT22;1537;52.018;8.542;2022-11-15T01:55:54;11.50;70.60
3055;DHT22;1537;52.018;8.542;2022-11-15T01:59:38;11.50;70.70
3055;DHT22;1537;52.018;8.542;2022-11-15T02:03:25;11.40;70.90
3055;DHT22;1537;52.018;8.542;2022-11-15T02:07:10;11.40;71.40
3055;DHT22;1537;52.018;8.542;2022-11-15T02:10:55;11.40;71.90
3055;DHT22;1537;52.018;8.542;2022-11-15T02:14:38;11.40;72.30
3055;DHT22;1537;52.018;8.542;2022-11-15T02:18:26;11.30;72.40
3055;DHT22;1537;52.018;8.542;2022-11-15T02:22:19;11.40;72.60
3055;DHT22;1537;52.018;8.542;2022-11-15T02:26:22;11.40;72.80
3055;DHT22;1537;52.018;8.542;2022-11-15T02:30:20;11.60;73.10
3055;DHT22;1537;52.018;8.542;2022-11-15T02:34:08;11.70;73.30
3055;DHT22;1537;52.018;8.542;2022-11-15T02:37:57;11.80;73.30
3055;DHT22;1537;52.018;8.542;2022-11-15T02:41:44;11.90;73.10
3055;DHT22;1537;52.018;8.542;2022-11-15T02:45:32;11.90;73.20
3055;DHT22;1537;52.018;8.542;2022-11-15T02:49:17;11.90;73.00
3055;DHT22;1537;52.018;8.542;2022-11-15T02:52:59;11.90;73.10
3055;DHT22;1537;52.018;8.542;2022-11-15T02:56:43;11.90;73.10
3055;DHT22;1537;52.018;8.542;2022-11-15T03:00:34;11.80;73.30
3055;DHT22;1537;52.018;8.542;2022-11-15T03:04:24;11.80;73.30
3055;DHT22;1537;52.018;8.542;2022-11-15T03:08:13;11.80;73.30
3055;DHT22;1537;52.018;8.542;2022-11-15T03:12:08;11.80;73.30
3055;DHT22;1537;52.018;8.542;2022-11-15T03:16:01;11.80;73.40
3055;DHT22;1537;52.018;8.542;2022-11-15T03:19:46;11.70;74.40
3055;DHT22;1537;52.018;8.542;2022-11-15T03:23:30;11.70;73.70
3055;DHT22;1537;52.018;8.542;2022-11-15T03:27:17;11.70;73.70
3055;DHT22;1537;52.018;8.542;2022-11-15T03:31:03;11.70;73.80
3055;DHT22;1537;52.018;8.542;2022-11-15T03:35:08;11.70;73.90
3055;DHT22;1537;52.018;8.542;2022-11-15T03:38:54;11.70;73.90
3055;DHT22;1537;52.018;8.542;2022-11-15T03:42:43;11.70;73.90
3055;DHT22;1537;52.018;8.542;2022-11-15T03:46:32;11.70;73.90
3055;DHT22;1537;52.018;8.542;2022-11-15T03:50:17;11.80;73.80
3055;DHT22;1537;52.018;8.542;2022-11-15T03:54:02;11.80;73.70
3055;DHT22;1537;52.018;8.542;2022-11-15T03:57:46;11.80;73.50
3055;DHT22;1537;52.018;8.542;2022-11-15T04:01:30;11.90;73.60
3055;DHT22;1537;52.018;8.542;2022-11-15T04:05:13;11.80;73.50
3055;DHT22;1537;52.018;8.542;2022-11-15T04:08:55;11.80;73.70
3055;DHT22;1537;52.018;8.542;2022-11-15T04:12:39;11.80;73.70
3055;DHT22;1537;52.018;8.542;2022-11-15T04:16:24;11.80;73.60
3055;DHT22;1537;52.018;8.542;2022-11-15T04:20:10;11.90;73.60
3055;DHT22;1537;52.018;8.542;2022-11-15T04:24:10;11.80;73.60
3055;DHT22;1537;52.018;8.542;2022-11-15T04:27:55;11.90;73.50
3055;DHT22;1537;52.018;8.542;2022-11-15T04:31:37;11.90;73.70
3055;DHT22;1537;52.018;8.542;2022-11-15T04:35:21;11.90;73.50
3055;DHT22;1537;52.018;8.542;2022-11-15T04:39:03;11.80;73.40
3055;DHT22;1537;52.018;8.542;2022-11-15T04:42:45;11.80;73.60
3055;DHT22;1537;52.018;8.542;2022-11-15T04:46:28;11.70;73.70
3055;DHT22;1537;52.018;8.542;2022-11-15T04:50:11;11.70;74.70
3055;DHT22;1537;52.018;8.542;2022-11-15T04:53:55;11.60;74.00
3055;DHT22;1537;52.018;8.542;2022-11-15T04:57:38;11.60;74.30
3055;DHT22;1537;52.018;8.542;2022-11-15T05:01:20;11.60;74.30
3055;DHT22;1537;52.018;8.542;2022-11-15T05:05:03;11.60;74.30
3055;DHT22;1537;52.018;8.542;2022-11-15T05:08:45;11.60;74.30
3055;DHT22;1537;52.018;8.542;2022-11-15T05:12:29;11.60;74.30
3055;DHT22;1537;52.018;8.542;2022-11-15T05:16:10;11.50;74.10
3055;DHT22;1537;52.018;8.542;2022-11-15T05:19:52;11.50;74.20
3055;DHT22;1537;52.018;8.542;2022-11-15T05:23:35;11.50;74.30
3055;DHT22;1537;52.018;8.542;2022-11-15T05:27:18;11.50;74.20
3055;DHT22;1537;52.018;8.542;2022-11-15T05:31:02;11.50;74.00
3055;DHT22;1537;52.018;8.542;2022-11-15T05:34:45;11.50;73.80
3055;DHT22;1537;52.018;8.542;2022-11-15T05:38:28;11.50;73.70
3055;DHT22;1537;52.018;8.542;2022-11-15T05:42:12;11.50;73.90
3055;DHT22;1537;52.018;8.542;2022-11-15T05:45:56;11.50;74.40
3055;DHT22;1537;52.018;8.542;2022-11-15T05:49:42;11.40;74.40
3055;DHT22;1537;52.018;8.542;2022-11-15T05:53:26;11.50;74.40
3055;DHT22;1537;52.018;8.542;2022-11-15T05:57:09;11.50;74.60
3055;DHT22;1537;52.018;8.542;2022-11-15T06:00:51;11.50;74.30
3055;DHT22;1537;52.018;8.542;2022-11-15T06:04:33;11.50;74.10
3055;DHT22;1537;52.018;8.542;2022-11-15T06:08:17;11.60;73.80
3055;DHT22;1537;52.018;8.542;2022-11-15T06:11:59;11.60;73.90
3055;DHT22;1537;52.018;8.542;2022-11-15T06:15:42;11.70;73.70
3055;DHT22;1537;52.018;8.542;2022-11-15T06:19:24;11.70;73.50
3055;DHT22;1537;52.018;8.542;2022-11-15T06:23:06;11.70;73.40
3055;DHT22;1537;52.018;8.542;2022-11-15T06:26:50;11.80;73.20
3055;DHT22;1537;52.018;8.542;2022-11-15T06:30:32;11.80;73.10
3055;DHT22;1537;52.018;8.542;2022-11-15T06:34:14;11.90;73.10
3055;DHT22;1537;52.018;8.542;2022-11-15T06:38:02;11.90;73.10
3055;DHT22;1537;52.018;8.542;2022-11-15T06:41:44;11.90;73.10
3055;DHT22;1537;52.018;8.542;2022-11-15T06:45:28;11.90;73.20
3055;DHT22;1537;52.018;8.542;2022-11-15T06:49:10;11.90;73.10
3055;DHT22;1537;52.018;8.542;2022-11-15T06:52:53;12.00;72.90
3055;DHT22;1537;52.018;8.542;2022-11-15T06:56:35;12.00;72.80
3055;DHT22;1537;52.018;8.542;2022-11-15T07:00:19;12.10;72.40
3055;DHT22;1537;52.018;8.542;2022-11-15T07:04:03;12.20;72.20
3055;DHT22;1537;52.018;8.542;2022-11-15T07:07:51;12.20;71.70
3055;DHT22;1537;52.018;8.542;2022-11-15T07:11:34;12.30;71.40
3055;DHT22;1537;52.018;8.542;2022-11-15T07:15:16;12.30;71.10
3055;DHT22;1537;52.018;8.542;2022-11-15T07:18:59;12.40;71.00
3055;DHT22;1537;52.018;8.542;2022-11-15T07:22:43;12.40;70.90
3055;DHT22;1537;52.018;8.542;2022-11-15T07:26:25;12.50;70.70
3055;DHT22;1537;52.018;8.542;2022-11-15T07:30:09;12.60;70.60
3055;DHT22;1537;52.018;8.542;2022-11-15T07:33:55;12.60;70.10
3055;DHT22;1537;52.018;8.542;2022-11-15T07:37:37;12.70;70.00
3055;DHT22;1537;52.018;8.542;2022-11-15T07:41:20;12.70;69.90
3055;DHT22;1537;52.018;8.542;2022-11-15T07:45:03;12.60;69.80
3055;DHT22;1537;52.018;8.542;2022-11-15T07:48:46;12.60;70.00
3055;DHT22;1537;52.018;8.542;2022-11-15T07:52:28;12.60;70.00
3055;DHT22;1537;52.018;8.542;2022-11-15T07:56:11;12.60;69.90
3055;DHT22;1537;52.018;8.542;2022-11-15T07:59:54;12.60;70.00
3055;DHT22;1537;52.018;8.542;2022-11-15T08:03:37;12.70;69.80
3055;DHT22;1537;52.018;8.542;2022-11-15T08:07:19;12.70;69.50
3055;DHT22;1537;52.018;8.542;2022-11-15T08:11:02;12.70;69.40
3055;DHT22;1537;52.018;8.542;2022-11-15T08:14:44;12.70;69.60
3055;DHT22;1537;52.018;8.542;2022-11-15T08:18:28;12.80;69.50
3055;DHT22;1537;52.018;8.542;2022-11-15T08:22:10;12.90;68.80
3055;DHT22;1537;52.018;8.542;2022-11-15T08:25:58;13.00;68.60
3055;DHT22;1537;52.018;8.542;2022-11-15T08:29:44;13.00;68.30
3055;DHT22;1537;52.018;8.542;2022-11-15T08:33:28;13.10;68.80
3055;DHT22;1537;52.018;8.542;2022-11-15T08:37:11;13.30;67.30
3055;DHT22;1537;52.018;8.542;2022-11-15T08:41:00;13.70;66.40
3055;DHT22;1537;52.018;8.542;2022-11-15T08:44:43;14.00;63.70
3055;DHT22;1537;52.018;8.542;2022-11-15T08:48:25;14.00;64.70
3055;DHT22;1537;52.018;8.542;2022-11-15T08:52:09;13.90;64.30
3055;DHT22;1537;52.018;8.542;2022-11-15T08:55:51;14.50;63.00
3055;DHT22;1537;52.018;8.542;2022-11-15T08:59:34;15.70;58.30
3055;DHT22;1537;52.018;8.542;2022-11-15T09:03:15;16.20;56.80
3055;DHT22;1537;52.018;8.542;2022-11-15T09:06:58;16.40;55.90
3055;DHT22;1537;52.018;8.542;2022-11-15T09:10:42;16.00;56.10
3055;DHT22;1537;52.018;8.542;2022-11-15T09:14:24;16.10;56.30
3055;DHT22;1537;52.018;8.542;2022-11-15T09:18:07;16.20;55.80
3055;DHT22;1537;52.018;8.542;2022-11-15T09:21:49;16.30;54.90
3055;DHT22;1537;52.018;8.542;2022-11-15T09:25:31;16.00;55.70
3055;DHT22;1537;52.018;8.542;2022-11-15T09:29:16;15.80;55.50
3055;DHT22;1537;52.018;8.542;2022-11-15T09:32:58;15.80;55.60
3055;DHT22;1537;52.018;8.542;2022-11-15T09:36:40;15.70;56.00
3055;DHT22;1537;52.018;8.542;2022-11-15T09:40:23;15.40;56.00
3055;DHT22;1537;52.018;8.542;2022-11-15T09:44:23;15.70;56.40
3055;DHT22;1537;52.018;8.542;2022-11-15T09:48:39;16.00;55.00
3055;DHT22;1537;52.018;8.542;2022-11-15T09:52:28;16.70;53.20
3055;DHT22;1537;52.018;8.542;2022-11-15T09:55:58;16.90;52.20
3055;DHT22;1537;52.018;8.542;2022-11-15T09:59:33;16.30;52.80
3055;DHT22;1537;52.018;8.542;2022-11-15T10:03:09;16.30;53.30
3055;DHT22;1537;52.018;8.542;2022-11-15T10:06:37;16.80;52.70
3055;DHT22;1537;52.018;8.542;2022-11-15T10:10:13;17.50;50.90
3055;DHT22;1537;52.018;8.542;2022-11-15T10:13:42;16.70;51.90
3055;DHT22;1537;52.018;8.542;2022-11-15T10:20:56;17.30;50.70
3055;DHT22;1537;52.018;8.542;2022-11-15T10:24:25;17.90;49.60
3055;DHT22;1537;52.018;8.542;2022-11-15T10:27:55;17.30;49.20
3055;DHT22;1537;52.018;8.542;2022-11-15T10:31:23;16.50;49.80
3055;DHT22;1537;52.018;8.542;2022-11-15T10:34:49;16.40;50.50
3055;DHT22;1537;52.018;8.542;2022-11-15T10:38:13;16.50;50.20
3055;DHT22;1537;52.018;8.542;2022-11-15T10:41:39;16.70;49.00
3055;DHT22;1537;52.018;8.542;2022-11-15T10:45:23;16.50;48.80
3055;DHT22;1537;52.018;8.542;2022-11-15T10:48:47;16.40;48.70
3055;DHT22;1537;52.018;8.542;2022-11-15T10:52:18;16.30;48.70
3055;DHT22;1537;52.018;8.542;2022-11-15T10:55:47;16.10;49.30
3055;DHT22;1537;52.018;8.542;2022-11-15T10:59:15;15.80;49.70
3055;DHT22;1537;52.018;8.542;2022-11-15T11:02:58;15.90;50.10
3055;DHT22;1537;52.018;8.542;2022-11-15T11:06:22;16.10;50.30
3055;DHT22;1537;52.018;8.542;2022-11-15T11:09:57;16.10;50.10
3055;DHT22;1537;52.018;8.542;2022-11-15T11:13:23;16.00;50.50
3055;DHT22;1537;52.018;8.542;2022-11-15T11:16:50;15.80;50.60
3055;DHT22;1537;52.018;8.542;2022-11-15T11:20:20;15.60;51.40
3055;DHT22;1537;52.018;8.542;2022-11-15T11:23:53;15.60;51.60
3055;DHT22;1537;52.018;8.542;2022-11-15T11:27:27;15.70;51.70
3055;DHT22;1537;52.018;8.542;2022-11-15T11:31:12;15.60;52.00
3055;DHT22;1537;52.018;8.542;2022-11-15T11:34:49;15.70;52.10
3055;DHT22;1537;52.018;8.542;2022-11-15T11:42:14;15.90;51.40
3055;DHT22;1537;52.018;8.542;2022-11-15T11:46:03;15.60;51.60
3055;DHT22;1537;52.018;8.542;2022-11-15T11:49:34;15.60;51.90
3055;DHT22;1537;52.018;8.542;2022-11-15T11:53:05;15.40;51.60
3055;DHT22;1537;52.018;8.542;2022-11-15T11:56:31;15.20;51.80
3055;DHT22;1537;52.018;8.542;2022-11-15T12:00:01;15.10;51.80
3055;DHT22;1537;52.018;8.542;2022-11-15T12:03:39;15.00;52.30
3055;DHT22;1537;52.018;8.542;2022-11-15T12:07:08;15.20;52.70
3055;DHT22;1537;52.018;8.542;2022-11-15T12:10:35;15.10;52.30
3055;DHT22;1537;52.018;8.542;2022-11-15T12:14:05;15.00;52.40
3055;DHT22;1537;52.018;8.542;2022-11-15T12:17:32;15.00;52.50
3055;DHT22;1537;52.018;8.542;2022-11-15T12:21:01;15.10;52.70
3055;DHT22;1537;52.018;8.542;2022-11-15T12:24:29;15.20;51.80
3055;DHT22;1537;52.018;8.542;2022-11-15T12:27:58;15.30;51.90
3055;DHT22;1537;52.018;8.542;2022-11-15T12:31:29;15.30;51.90
3055;DHT22;1537;52.018;8.542;2022-11-15T12:34:56;15.40;51.60
3055;DHT22;1537;52.018;8.542;2022-11-15T12:38:56;15.50;51.40
3055;DHT22;1537;52.018;8.542;2022-11-15T12:42:40;15.40;51.30
3055;DHT22;1537;52.018;8.542;2022-11-15T12:46:05;15.50;51.30
3055;DHT22;1537;52.018;8.542;2022-11-15T12:49:44;15.40;51.00
3055;DHT22;1537;52.018;8.542;2022-11-15T12:53:29;15.30;50.70
3055;DHT22;1537;52.018;8.542;2022-11-15T12:57:29;15.30;50.50
3055;DHT22;1537;52.018;8.542;2022-11-15T13:00:53;15.20;50.40
3055;DHT22;1537;52.018;8.542;2022-11-15T13:04:28;15.20;50.50
3055;DHT22;1537;52.018;8.542;2022-11-15T13:07:57;15.10;50.60
3055;DHT22;1537;52.018;8.542;2022-11-15T13:11:47;15.10;50.10
3055;DHT22;1537;52.018;8.542;2022-11-15T13:15:38;15.10;50.30
3055;DHT22;1537;52.018;8.542;2022-11-15T13:19:04;15.10;50.40
3055;DHT22;1537;52.018;8.542;2022-11-15T13:22:38;15.20;49.50
3055;DHT22;1537;52.018;8.542;2022-11-15T13:26:14;15.20;49.60
3055;DHT22;1537;52.018;8.542;2022-11-15T13:29:43;15.10;49.50
3055;DHT22;1537;52.018;8.542;2022-11-15T13:33:14;15.00;50.00
3055;DHT22;1537;52.018;8.542;2022-11-15T13:36:38;15.10;50.10
3055;DHT22;1537;52.018;8.542;2022-11-15T13:40:23;15.10;49.80
3055;DHT22;1537;52.018;8.542;2022-11-15T13:43:50;15.20;50.10
3055;DHT22;1537;52.018;8.542;2022-11-15T13:47:20;15.20;49.90
3055;DHT22;1537;52.018;8.542;2022-11-15T13:50:45;15.10;50.20
3055;DHT22;1537;52.018;8.542;2022-11-15T13:54:16;15.10;50.40
3055;DHT22;1537;52.018;8.542;2022-11-15T13:57:43;15.10;50.50
3055;DHT22;1537;52.018;8.542;2022-11-15T14:01:14;15.00;52.50
3055;DHT22;1537;52.018;8.542;2022-11-15T14:04:46;14.80;55.30
3055;DHT22;1537;52.018;8.542;2022-11-15T14:08:23;14.80;56.00
3055;DHT22;1537;52.018;8.542;2022-11-15T14:11:52;14.80;56.50
3055;DHT22;1537;52.018;8.542;2022-11-15T14:15:26;14.80;56.70
3055;DHT22;1537;52.018;8.542;2022-11-15T14:18:51;14.70;57.10
3055;DHT22;1537;52.018;8.542;2022-11-15T14:22:18;14.60;57.30
3055;DHT22;1537;52.018;8.542;2022-11-15T14:25:52;14.60;57.40
3055;DHT22;1537;52.018;8.542;2022-11-15T14:29:24;14.60;57.30
3055;DHT22;1537;52.018;8.542;2022-11-15T14:32:49;14.60;57.20
3055;DHT22;1537;52.018;8.542;2022-11-15T14:36:19;14.50;57.20
3055;DHT22;1537;52.018;8.542;2022-11-15T14:39:42;14.50;56.60
3055;DHT22;1537;52.018;8.542;2022-11-15T14:43:09;14.50;56.60
3055;DHT22;1537;52.018;8.542;2022-11-15T14:46:33;14.40;56.20
3055;DHT22;1537;52.018;8.542;2022-11-15T14:49:57;14.40;56.40
3055;DHT22;1537;52.018;8.542;2022-11-15T14:53:20;14.40;56.20
3055;DHT22;1537;52.018;8.542;2022-11-15T14:56:44;14.20;56.10
3055;DHT22;1537;52.018;8.542;2022-11-15T15:00:10;14.20;56.30
3055;DHT22;1537;52.018;8.542;2022-11-15T15:03:34;14.20;56.10
3055;DHT22;1537;52.018;8.542;2022-11-15T15:06:57;14.10;56.20
3055;DHT22;1537;52.018;8.542;2022-11-15T15:10:30;14.00;56.30
3055;DHT22;1537;52.018;8.542;2022-11-15T15:14:02;13.90;56.40
3055;DHT22;1537;52.018;8.542;2022-11-15T15:17:27;13.80;56.20
3055;DHT22;1537;52.018;8.542;2022-11-15T15:20:55;13.70;56.30
3055;DHT22;1537;52.018;8.542;2022-11-15T15:24:19;13.80;56.20
3055;DHT22;1537;52.018;8.542;2022-11-15T15:27:43;13.70;56.00
3055;DHT22;1537;52.018;8.542;2022-11-15T15:31:08;13.70;55.90
3055;DHT22;1537;52.018;8.542;2022-11-15T15:34:33;13.70;55.50
3055;DHT22;1537;52.018;8.542;2022-11-15T15:37:57;13.70;55.40
3055;DHT22;1537;52.018;8.542;2022-11-15T15:41:20;13.70;55.30
3055;DHT22;1537;52.018;8.542;2022-11-15T15:44:44;13.70;55.10
3055;DHT22;1537;52.018;8.542;2022-11-15T15:48:11;13.70;55.30
3055;DHT22;1537;52.018;8.542;2022-11-15T15:51:36;13.70;55.30
3055;DHT22;1537;52.018;8.542;2022-11-15T15:55:00;13.70;55.30
3055;DHT22;1537;52.018;8.542;2022-11-15T15:58:24;13.70;55.30
3055;DHT22;1537;52.018;8.542;2022-11-15T16:01:48;13.70;55.20
3055;DHT22;1537;52.018;8.542;2022-11-15T16:05:12;13.70;55.30
3055;DHT22;1537;52.018;8.542;2022-11-15T16:08:37;13.70;55.20
3055;DHT22;1537;52.018;8.542;2022-11-15T16:12:21;13.70;55.30
3055;DHT22;1537;52.018;8.542;2022-11-15T16:15:47;13.70;55.30
3055;DHT22;1537;52.018;8.542;2022-11-15T16:19:11;13.60;55.30
3055;DHT22;1537;52.018;8.542;2022-11-15T16:22:35;13.60;55.40
3055;DHT22;1537;52.018;8.542;2022-11-15T16:26:00;13.60;55.50
3055;DHT22;1537;52.018;8.542;2022-11-15T16:29:25;13.60;55.80
3055;DHT22;1537;52.018;8.542;2022-11-15T16:32:48;13.50;56.00
3055;DHT22;1537;52.018;8.542;2022-11-15T16:36:19;13.40;56.20
3055;DHT22;1537;52.018;8.542;2022-11-15T16:39:51;13.40;56.50
3055;DHT22;1537;52.018;8.542;2022-11-15T16:43:23;13.40;56.80
3055;DHT22;1537;52.018;8.542;2022-11-15T16:46:47;13.40;57.20
3055;DHT22;1537;52.018;8.542;2022-11-15T16:50:19;13.40;57.40
3055;DHT22;1537;52.018;8.542;2022-11-15T16:53:45;13.30;57.70
3055;DHT22;1537;52.018;8.542;2022-11-15T16:57:10;13.30;57.90
3055;DHT22;1537;52.018;8.542;2022-11-15T17:00:35;13.30;58.10
3055;DHT22;1537;52.018;8.542;2022-11-15T17:03:59;13.30;58.10
3055;DHT22;1537;52.018;8.542;2022-11-15T17:07:33;13.30;58.20
3055;DHT22;1537;52.018;8.542;2022-11-15T17:10:57;13.20;58.40
3055;DHT22;1537;52.018;8.542;2022-11-15T17:14:21;13.20;58.60
3055;DHT22;1537;52.018;8.542;2022-11-15T17:17:50;13.20;58.80
3055;DHT22;1537;52.018;8.542;2022-11-15T17:21:15;13.20;59.00
3055;DHT22;1537;52.018;8.542;2022-11-15T17:24:39;13.20;59.40
3055;DHT22;1537;52.018;8.542;2022-11-15T17:28:03;13.20;59.60
3055;DHT22;1537;52.018;8.542;2022-11-15T17:31:27;13.20;59.90
3055;DHT22;1537;52.018;8.542;2022-11-15T17:34:53;13.10;59.90
3055;DHT22;1537;52.018;8.542;2022-11-15T17:38:17;13.20;60.30
3055;DHT22;1537;52.018;8.542;2022-11-15T17:41:41;13.20;60.60
3055;DHT22;1537;52.018;8.542;2022-11-15T17:45:06;13.10;60.90
3055;DHT22;1537;52.018;8.542;2022-11-15T17:48:32;13.10;60.90
3055;DHT22;1537;52.018;8.542;2022-11-15T17:51:57;13.10;61.40
3055;DHT22;1537;52.018;8.542;2022-11-15T17:55:21;13.10;61.70
3055;DHT22;1537;52.018;8.542;2022-11-15T17:58:47;13.10;62.00
3055;DHT22;1537;52.018;8.542;2022-11-15T18:02:11;13.10;62.10
3055;DHT22;1537;52.018;8.542;2022-11-15T18:05:34;13.20;62.50
3055;DHT22;1537;52.018;8.542;2022-11-15T18:09:00;13.10;62.50
3055;DHT22;1537;52.018;8.542;2022-11-15T18:12:24;13.20;62.80
3055;DHT22;1537;52.018;8.542;2022-11-15T18:15:52;13.20;63.00
3055;DHT22;1537;52.018;8.542;2022-11-15T18:19:16;13.20;62.90
3055;DHT22;1537;52.018;8.542;2022-11-15T18:22:40;13.30;63.10
3055;DHT22;1537;52.018;8.542;2022-11-15T18:26:06;13.40;63.20
3055;DHT22;1537;52.018;8.542;2022-11-15T18:29:31;13.30;63.20
3055;DHT22;1537;52.018;8.542;2022-11-15T18:32:55;13.30;63.20
3055;DHT22;1537;52.018;8.542;2022-11-15T18:36:21;13.40;63.40
3055;DHT22;1537;52.018;8.542;2022-11-15T18:39:46;13.30;63.50
3055;DHT22;1537;52.018;8.542;2022-11-15T18:43:16;13.30;63.50
3055;DHT22;1537;52.018;8.542;2022-11-15T18:46:40;13.30;64.40
3055;DHT22;1537;52.018;8.542;2022-11-15T18:50:06;13.30;63.60
3055;DHT22;1537;52.018;8.542;2022-11-15T18:53:30;13.30;63.70
3055;DHT22;1537;52.018;8.542;2022-11-15T18:56:54;13.30;63.70
3055;DHT22;1537;52.018;8.542;2022-11-15T19:00:20;13.30;63.80
3055;DHT22;1537;52.018;8.542;2022-11-15T19:03:45;13.30;63.80
3055;DHT22;1537;52.018;8.542;2022-11-15T19:07:09;13.30;64.50
3055;DHT22;1537;52.018;8.542;2022-11-15T19:10:33;13.30;63.90
3055;DHT22;1537;52.018;8.542;2022-11-15T19:13:59;13.30;63.80
3055;DHT22;1537;52.018;8.542;2022-11-15T19:17:25;13.30;63.70
3055;DHT22;1537;52.018;8.542;2022-11-15T19:20:49;13.40;64.50
3055;DHT22;1537;52.018;8.542;2022-11-15T19:24:13;13.40;63.70
3055;DHT22;1537;52.018;8.542;2022-11-15T19:27:36;13.40;63.50
3055;DHT22;1537;52.018;8.542;2022-11-15T19:31:04;13.40;63.70
3055;DHT22;1537;52.018;8.542;2022-11-15T19:34:30;13.30;63.50
3055;DHT22;1537;52.018;8.542;2022-11-15T19:37:54;13.40;63.70
3055;DHT22;1537;52.018;8.542;2022-11-15T19:41:20;13.40;63.40
3055;DHT22;1537;52.018;8.542;2022-11-15T19:44:44;13.40;63.40
3055;DHT22;1537;52.018;8.542;2022-11-15T19:48:07;13.40;63.00
3055;DHT22;1537;52.018;8.542;2022-11-15T19:51:33;13.50;63.10
3055;DHT22;1537;52.018;8.542;2022-11-15T19:54:56;13.50;63.00
3055;DHT22;1537;52.018;8.542;2022-11-15T19:58:20;13.40;62.90
3055;DHT22;1537;52.018;8.542;2022-11-15T20:01:44;13.40;62.80
3055;DHT22;1537;52.018;8.542;2022-11-15T20:05:08;13.40;63.10
3055;DHT22;1537;52.018;8.542;2022-11-15T20:08:41;13.30;63.30
3055;DHT22;1537;52.018;8.542;2022-11-15T20:12:05;13.30;63.60
3055;DHT22;1537;52.018;8.542;2022-11-15T20:15:29;13.20;63.60
3055;DHT22;1537;52.018;8.542;2022-11-15T20:18:53;13.20;63.90
3055;DHT22;1537;52.018;8.542;2022-11-15T20:22:17;13.10;64.00
3055;DHT22;1537;52.018;8.542;2022-11-15T20:25:46;13.10;64.20
3055;DHT22;1537;52.018;8.542;2022-11-15T20:29:17;13.00;64.30
3055;DHT22;1537;52.018;8.542;2022-11-15T20:32:41;13.00;64.10
3055;DHT22;1537;52.018;8.542;2022-11-15T20:36:11;13.00;64.00
3055;DHT22;1537;52.018;8.542;2022-11-15T20:39:35;13.10;64.20
3055;DHT22;1537;52.018;8.542;2022-11-15T20:43:00;13.00;64.20
3055;DHT22;1537;52.018;8.542;2022-11-15T20:46:24;13.00;64.20
3055;DHT22;1537;52.018;8.542;2022-11-15T20:49:47;13.00;64.20
3055;DHT22;1537;52.018;8.542;2022-11-15T20:53:12;13.00;64.00
3055;DHT22;1537;52.018;8.542;2022-11-15T20:56:36;13.00;63.90
3055;DHT22;1537;52.018;8.542;2022-11-15T21:00:01;13.00;63.70
3055;DHT22;1537;52.018;8.542;2022-11-15T21:03:27;13.00;63.30
3055;DHT22;1537;52.018;8.542;2022-11-15T21:06:51;13.00;63.20
3055;DHT22;1537;52.018;8.542;2022-11-15T21:10:15;13.10;63.30
3055;DHT22;1537;52.018;8.542;2022-11-15T21:13:57;13.10;63.10
3055;DHT22;1537;52.018;8.542;2022-11-15T21:17:22;13.10;62.90
3055;DHT22;1537;52.018;8.542;2022-11-15T21:20:49;13.00;62.60
3055;DHT22;1537;52.018;8.542;2022-11-15T21:24:15;13.00;62.60
3055;DHT22;1537;52.018;8.542;2022-11-15T21:27:42;13.00;62.50
3055;DHT22;1537;52.018;8.542;2022-11-15T21:31:08;13.00;62.40
3055;DHT22;1537;52.018;8.542;2022-11-15T21:34:36;13.00;62.30
3055;DHT22;1537;52.018;8.542;2022-11-15T21:38:03;13.00;62.00
3055;DHT22;1537;52.018;8.542;2022-11-15T21:41:27;13.10;61.60
3055;DHT22;1537;52.018;8.542;2022-11-15T21:44:54;13.00;61.40
3055;DHT22;1537;52.018;8.542;2022-11-15T21:48:22;13.10;61.40
3055;DHT22;1537;52.018;8.542;2022-11-15T21:51:48;13.10;61.00
3055;DHT22;1537;52.018;8.542;2022-11-15T21:55:12;13.10;60.90
3055;DHT22;1537;52.018;8.542;2022-11-15T21:58:36;13.10;60.90
3055;DHT22;1537;52.018;8.542;2022-11-15T22:02:00;13.10;60.90
3055;DHT22;1537;52.018;8.542;2022-11-15T22:05:43;13.10;61.00
3055;DHT22;1537;52.018;8.542;2022-11-15T22:09:08;13.10;61.20
3055;DHT22;1537;52.018;8.542;2022-11-15T22:12:31;13.10;62.30
3055;DHT22;1537;52.018;8.542;2022-11-15T22:15:55;13.00;61.60
3055;DHT22;1537;52.018;8.542;2022-11-15T22:19:19;13.00;61.60
3055;DHT22;1537;52.018;8.542;2022-11-15T22:22:43;12.90;62.30
3055;DHT22;1537;52.018;8.542;2022-11-15T22:26:10;12.80;65.90
3055;DHT22;1537;52.018;8.542;2022-11-15T22:29:34;12.50;68.40
3055;DHT22;1537;52.018;8.542;2022-11-15T22:32:58;12.20;69.90
3055;DHT22;1537;52.018;8.542;2022-11-15T22:36:22;12.10;70.10
3055;DHT22;1537;52.018;8.542;2022-11-15T22:39:57;12.00;70.00
3055;DHT22;1537;52.018;8.542;2022-11-15T22:43:24;12.00;70.30
3055;DHT22;1537;52.018;8.542;2022-11-15T22:46:48;12.00;69.60
3055;DHT22;1537;52.018;8.542;2022-11-15T22:50:12;12.00;69.30
3055;DHT22;1537;52.018;8.542;2022-11-15T22:53:35;12.00;69.30
3055;DHT22;1537;52.018;8.542;2022-11-15T22:56:59;12.10;67.80
3055;DHT22;1537;52.018;8.542;2022-11-15T23:00:24;12.20;67.20
3055;DHT22;1537;52.018;8.542;2022-11-15T23:03:48;12.20;67.00
3055;DHT22;1537;52.018;8.542;2022-11-15T23:07:12;12.30;66.30
3055;DHT22;1537;52.018;8.542;2022-11-15T23:10:36;12.20;67.60
3055;DHT22;1537;52.018;8.542;2022-11-15T23:14:17;12.20;67.20
3055;DHT22;1537;52.018;8.542;2022-11-15T23:17:42;12.20;67.50
3055;DHT22;1537;52.018;8.542;2022-11-15T23:21:10;12.10;68.20
3055;DHT22;1537;52.018;8.542;2022-11-15T23:24:35;12.00;68.20
3055;DHT22;1537;52.018;8.542;2022-11-15T23:28:00;11.90;68.40